Terminal Aerodrome Forecast
Issued by NWS

Home | Current Version | Previous Version | Text Only | Print | Product List | Glossary On
Versions: 1 2 3 4 5 6 7 8 9 10 11 12 13 14 15 16 17 18 19 20 21 22 23 24
457
FTUS46 KHNX 091351 AAA
TAFVIS
TAF AMD
KVIS 091351Z 0914/1012 12007KT 2SM BR SCT020 BKN050
      TEMPO 0914/0917 3/4SM BR
     FM091800 12007KT P6SM VCSH SCT020 OVC050
     FM100900 09008KT P6SM SCT020 OVC050
      TEMPO 1009/1012 4SM -RA BR OVC020=

USA.gov is the U.S. government's official web portal to all federal, state and local government web resources and services.